BLACK BUTTE (BLB)

Elevation: 426' · STONY CR basin · Operator: US Army Corps of Engineers

Provisional data, subject to change.
Query executed Sunday at 5:46:33   clock

Select a sensor type for a plot of data.
Note: Reservoir Flows are daily averages.

Earlier

Date RES ELE    STORAGE    RES CHG    TOC STO    ABV TOC    OUTFLOW    INFLOW    PPT INC    TEMP MN    TEMP MX    EVP PAN   
 FEET   AF   AF   AF   AF   CFS   CFS   INCHES   DEG F   DEG F   INCHES  
06/06/2015 455.58 69443 93 136200 -66757 142 222 0.00 20 39 0.36
06/07/2015 455.67 69720 277 136200 -66480 107 276 0.00 21 42 0.32
06/08/2015 455.75 69967 247 136200 -66233 93 249 0.00 22 40 0.34
06/09/2015 455.75 69967 0 136200 -66233 189 221 0.00 25 40 0.34
06/10/2015 455.75 69967 0 136200 -66233 220 245 0.00 21 29 0.27
06/11/2015 455.71 69844 -123 136200 -66356 240 209 0.00 20 41 0.34
06/12/2015 455.69 69782 -62 136200 -66418 253 254 0.00 21 43 0.35
06/13/2015 455.64 69628 -154 136200 -66572 275 228 0.00 21 38 0.33
06/14/2015 455.61 69535 -93 136200 -66665 257 239 0.00 17 33 0.31
06/15/2015 455.55 69350 -185 136200 -66850 274 209 0.00 16 33 0.30
06/16/2015 455.50 69197 -153 136200 -67003 296 249 0.00 17 36 0.32
06/17/2015 455.45 69043 -154 136200 -67157 277 230 0.00 19 36 0.33
06/18/2015 455.40 68890 -153 136200 -67310 266 219 0.00 18 33 0.32
06/19/2015 455.42 68951 61 136200 -67249 218 276 0.00 17 35 0.30
06/20/2015 455.60 69504 553 136200 -66696 185 494 0.00 19 35 0.33
06/21/2015 455.79 70091 587 136200 -66109 177 504 0.00 16 32 0.33
06/22/2015 455.99 70712 621 136200 -65488 157 497 0.00 15 33 0.29
06/23/2015 456.17 71273 561 136200 -64927 198 510 0.00 18 38 0.31
06/24/2015 456.32 71744 471 136200 -64456 234 502 0.00 21 36 0.32
06/25/2015 456.45 72153 409 136200 -64047 279 518 0.00 25 40 0.34
06/26/2015 456.56 72500 347 136200 -63700 281 489 0.00 22 41 0.35
06/27/2015 456.67 72848 348 136200 -63352 286 487 0.00 21 34 0.27
06/28/2015 456.78 73197 349 136200 -63003 287 492 0.00 22 36 0.30
06/29/2015 456.90 73579 382 136200 -62621 273 496 0.00 19 39 0.32
06/30/2015 457.02 73963 384 136200 -62237 255 483 0.00 23 43 0.33
07/01/2015 457.12 74283 320 136200 -61917 226 423 0.00 26 40 0.34
07/02/2015 457.13 74315 32 136200 -61885 177 231 0.00 24 39 0.37
07/03/2015 457.15 74379 64 136200 -61821 171 235 0.00 24 36 0.30
07/04/2015 457.17 74444 65 136200 -61756 171 236 0.00 23 38 0.32
07/05/2015 -- -- -- -- -- -- -- -- -- -- --

Later | Latest

Warning! This data is preliminary and subject to revision.

Show BLB Map | Plot BLB Data | 1 Month BLB Data | Real-Time BLB Data | BLB Info